Time;durP1;ratioP1;P1;durP2;ratioP2;P2;SDS_P1;SDS_P2;PMS_P1;PMS_P2;Temp;Humidity;BMP_temperature;BMP_pressure;BME280_temperature;BME280_humidity;BME280_pressure;Samples;Min_cycle;Max_cycle;Signal;HPM_P1;HPM_P2
2021/06/29 00:00:31;;;;;;;9.02;4.97;;;;;;;;;;5171800;27;20512;-69
2021/06/29 00:03:01;;;;;;;7.38;5.13;;;;;;;;;;5171889;27;20030;-69
2021/06/29 00:05:28;;;;;;;7.20;5.00;;;;;;;;;;5171347;27;20034;-69
2021/06/29 00:07:55;;;;;;;8.73;5.45;;;;;;;;;;5171854;27;20026;-69
2021/06/29 00:10:22;;;;;;;7.78;5.53;;;;;;;;;;5153266;27;20026;-69
2021/06/29 00:12:48;;;;;;;8.38;5.05;;;;;;;;;;5171241;27;20015;-69
2021/06/29 00:15:14;;;;;;;9.38;5.45;;;;;;;;;;5171619;27;20022;-69
2021/06/29 00:17:40;;;;;;;10.93;5.30;;;;;;;;;;5171873;27;20018;-69
2021/06/29 00:20:07;;;;;;;7.93;5.28;;;;;;;;;;5171158;27;20482;-69
2021/06/29 00:22:33;;;;;;;8.13;4.80;;;;;;;;;;5171511;27;20473;-70
2021/06/29 00:25:00;;;;;;;7.82;5.03;;;;;;;;;;5152390;27;20076;-69
2021/06/29 00:27:26;;;;;;;7.05;4.85;;;;;;;;;;5152409;27;20014;-69
2021/06/29 00:30:19;;;;;;;6.85;4.18;;;;;;;;;;5193774;27;20400;-69
2021/06/29 00:32:45;;;;;;;8.55;5.20;;;;;;;;;;5172562;27;20018;-69
2021/06/29 00:35:12;;;;;;;7.18;4.68;;;;;;;;;;5172122;27;20075;-69
2021/06/29 00:37:39;;;;;;;7.47;5.53;;;;;;;;;;5172435;27;20042;-69
2021/06/29 00:40:06;;;;;;;8.80;6.43;;;;;;;;;;5153234;27;20023;-69
2021/06/29 00:42:32;;;;;;;9.25;5.30;;;;;;;;;;5172306;27;20023;-69
2021/06/29 00:44:58;;;;;;;8.85;5.20;;;;;;;;;;5172516;27;20365;-70
2021/06/29 00:47:25;;;;;;;8.32;5.65;;;;;;;;;;5171857;27;20351;-69
2021/06/29 00:50:46;;;;;;;6.28;4.78;;;;;;;;;;5193751;27;20384;-69
2021/06/29 00:53:13;;;;;;;7.68;5.00;;;;;;;;;;5153767;27;20496;-69
2021/06/29 00:55:39;;;;;;;7.00;4.90;;;;;;;;;;5172081;27;20045;-69
2021/06/29 01:00:59;;;;;;;11.68;5.40;;;;;;;;;;5118973;27;20397;-69
2021/06/29 01:03:25;;;;;;;8.88;4.50;;;;;;;;;;5090068;28;20381;-69
2021/06/29 01:05:52;;;;;;;6.35;4.40;;;;;;;;;;5090209;28;20028;-69
2021/06/29 01:08:19;;;;;;;6.70;4.72;;;;;;;;;;5089785;28;20437;-69
2021/06/29 01:10:45;;;;;;;7.20;4.68;;;;;;;;;;5088879;28;20024;-69
2021/06/29 01:13:11;;;;;;;7.93;5.05;;;;;;;;;;5090013;28;20024;-69
2021/06/29 01:16:39;;;;;;;6.95;4.50;;;;;;;;;;5193099;27;20453;-69
2021/06/29 01:23:19;;;;;;;7.30;5.40;;;;;;;;;;5151349;27;20381;-69
2021/06/29 01:25:46;;;;;;;9.18;5.28;;;;;;;;;;5151684;27;20114;-68
2021/06/29 01:32:18;;;;;;;8.82;5.38;;;;;;;;;;5172602;27;20031;-69
2021/06/29 01:34:45;;;;;;;8.65;4.63;;;;;;;;;;5172414;27;20206;-69
2021/06/29 01:37:11;;;;;;;6.78;4.45;;;;;;;;;;5153382;27;20026;-69
2021/06/29 01:39:37;;;;;;;8.30;5.00;;;;;;;;;;5172263;27;20060;-69
2021/06/29 01:42:04;;;;;;;7.57;5.03;;;;;;;;;;5172345;27;20030;-69
2021/06/29 01:44:33;;;;;;;8.77;5.22;;;;;;;;;;5171528;27;20019;-69
2021/06/29 01:47:03;;;;;;;9.40;5.32;;;;;;;;;;5172152;27;20046;-69
2021/06/29 01:49:29;;;;;;;8.50;5.03;;;;;;;;;;5172298;27;20054;-69
2021/06/29 01:51:56;;;;;;;10.93;5.95;;;;;;;;;;5171999;27;20023;-69
2021/06/29 01:54:22;;;;;;;7.35;4.80;;;;;;;;;;5172156;27;20030;-69
2021/06/29 01:56:51;;;;;;;8.23;5.07;;;;;;;;;;5153385;27;20478;-69
2021/06/29 01:59:20;;;;;;;7.72;5.47;;;;;;;;;;5171625;27;20097;-69
2021/06/29 02:02:17;;;;;;;7.60;4.95;;;;;;;;;;5193504;27;20499;-69
2021/06/29 02:04:43;;;;;;;7.45;5.35;;;;;;;;;;5172050;27;20281;-69
2021/06/29 02:07:10;;;;;;;8.70;5.82;;;;;;;;;;5172451;27;20046;-70
2021/06/29 02:09:36;;;;;;;8.07;5.63;;;;;;;;;;5172662;27;20015;-70
2021/06/29 02:12:02;;;;;;;7.95;5.35;;;;;;;;;;5172122;27;20023;-70
2021/06/29 02:14:28;;;;;;;8.38;5.00;;;;;;;;;;5172299;27;20053;-70
2021/06/29 02:16:54;;;;;;;7.90;5.47;;;;;;;;;;5172315;27;20022;-70
2021/06/29 02:19:21;;;;;;;8.52;5.63;;;;;;;;;;5171838;27;20022;-70
2021/06/29 02:21:47;;;;;;;9.25;5.38;;;;;;;;;;5153409;27;20031;-70
2021/06/29 02:24:13;;;;;;;8.73;5.75;;;;;;;;;;5153513;27;20118;-70
2021/06/29 02:26:39;;;;;;;9.13;5.57;;;;;;;;;;5171750;27;20101;-70
2021/06/29 02:29:05;;;;;;;7.63;4.90;;;;;;;;;;5172165;27;20355;-70
2021/06/29 02:36:22;;;;;;;11.98;6.00;;;;;;;;;;5193604;27;20758;-68
2021/06/29 02:38:48;;;;;;;9.48;5.85;;;;;;;;;;5172506;27;20146;-69
2021/06/29 02:41:14;;;;;;;9.35;5.97;;;;;;;;;;5153421;27;20034;-69
2021/06/29 02:43:42;;;;;;;9.73;6.10;;;;;;;;;;5172403;27;20029;-68
2021/06/29 02:46:08;;;;;;;10.80;6.28;;;;;;;;;;5172350;27;20090;-69
2021/06/29 02:48:34;;;;;;;9.00;5.45;;;;;;;;;;5171961;27;20067;-68
2021/06/29 02:51:01;;;;;;;8.77;5.50;;;;;;;;;;5172475;27;20023;-69
2021/06/29 02:53:27;;;;;;;11.43;5.38;;;;;;;;;;5153307;27;20026;-69
2021/06/29 02:58:07;;;;;;;9.43;5.40;;;;;;;;;;5193457;27;20473;-69
2021/06/29 03:00:34;;;;;;;10.40;6.18;;;;;;;;;;5172128;27;20035;-69
2021/06/29 03:03:00;;;;;;;9.30;6.78;;;;;;;;;;5172431;27;20093;-69
2021/06/29 03:05:26;;;;;;;8.13;5.85;;;;;;;;;;5172363;27;20023;-69
2021/06/29 03:07:52;;;;;;;9.48;6.57;;;;;;;;;;5172254;27;20022;-69
2021/06/29 03:10:18;;;;;;;10.35;6.07;;;;;;;;;;5172412;27;20014;-69
2021/06/29 03:12:44;;;;;;;9.63;6.47;;;;;;;;;;5172506;27;20517;-69
2021/06/29 03:15:11;;;;;;;9.38;5.90;;;;;;;;;;5171854;27;20026;-69
2021/06/29 03:20:13;;;;;;;9.88;6.43;;;;;;;;;;5149278;27;20779;-69
2021/06/29 03:22:39;;;;;;;8.40;5.55;;;;;;;;;;5128340;28;20496;-68
2021/06/29 03:25:06;;;;;;;9.80;6.38;;;;;;;;;;5111490;28;20059;-69
2021/06/29 03:27:32;;;;;;;7.35;5.22;;;;;;;;;;5090044;28;20392;-68
2021/06/29 03:29:58;;;;;;;9.52;6.55;;;;;;;;;;5089648;28;20057;-69
2021/06/29 03:32:24;;;;;;;9.65;5.82;;;;;;;;;;5090083;28;20069;-69
2021/06/29 03:34:51;;;;;;;9.57;6.53;;;;;;;;;;5089824;28;20122;-69
2021/06/29 03:38:10;;;;;;;7.53;5.68;;;;;;;;;;5193568;27;20743;-69
2021/06/29 03:40:36;;;;;;;9.18;5.38;;;;;;;;;;5172491;27;20038;-69
2021/06/29 03:43:03;;;;;;;10.05;5.85;;;;;;;;;;5172070;27;20518;-69
2021/06/29 03:45:29;;;;;;;11.10;6.13;;;;;;;;;;5172424;27;20378;-69
2021/06/29 03:47:55;;;;;;;8.45;5.68;;;;;;;;;;5172366;27;20014;-69
2021/06/29 03:53:14;;;;;;;11.00;6.05;;;;;;;;;;5146207;27;20392;-69
2021/06/29 03:55:40;;;;;;;8.73;6.15;;;;;;;;;;5110335;28;20031;-69
2021/06/29 03:58:07;;;;;;;10.48;5.97;;;;;;;;;;5109975;28;20030;-69
2021/06/29 04:00:33;;;;;;;10.15;5.68;;;;;;;;;;5110660;28;20016;-69
2021/06/29 04:02:59;;;;;;;9.55;6.47;;;;;;;;;;5110367;28;20035;-69
2021/06/29 04:05:25;;;;;;;11.55;5.90;;;;;;;;;;5109960;28;20044;-69
2021/06/29 04:07:51;;;;;;;7.80;4.65;;;;;;;;;;5110198;28;20391;-69
2021/06/29 04:10:18;;;;;;;9.02;5.85;;;;;;;;;;5126025;28;20476;-69
2021/06/29 04:12:44;;;;;;;7.10;5.10;;;;;;;;;;5109972;28;20036;-69
2021/06/29 04:17:02;;;;;;;11.13;6.43;;;;;;;;;;5149221;27;20768;-69
2021/06/29 04:21:12;;;;;;;9.40;5.28;;;;;;;;;;5149614;27;20846;-69
2021/06/29 04:23:39;;;;;;;9.13;5.55;;;;;;;;;;5099495;28;20043;-69
2021/06/29 04:26:05;;;;;;;9.07;5.95;;;;;;;;;;5089693;28;20499;-69
2021/06/29 04:28:31;;;;;;;11.05;5.60;;;;;;;;;;5089906;28;20036;-69
2021/06/29 04:36:42;;;;;;;10.98;6.03;;;;;;;;;;5193633;27;20424;-69
2021/06/29 04:39:08;;;;;;;8.80;5.70;;;;;;;;;;5172342;27;20033;-69
2021/06/29 04:42:25;;;;;;;8.38;5.53;;;;;;;;;;5193558;27;20400;-69
2021/06/29 04:44:51;;;;;;;10.32;6.10;;;;;;;;;;5172507;27;20445;-69
2021/06/29 04:48:46;;;;;;;9.70;5.78;;;;;;;;;;5111003;27;20155;-69
2021/06/29 04:52:53;;;;;;;8.10;5.30;;;;;;;;;;5121927;27;20398;-69
2021/06/29 04:55:20;;;;;;;8.98;5.85;;;;;;;;;;5089759;28;20369;-69
2021/06/29 04:57:47;;;;;;;8.20;5.18;;;;;;;;;;5090112;28;20158;-69
2021/06/29 05:00:16;;;;;;;11.70;5.20;;;;;;;;;;5089684;28;20021;-69
2021/06/29 05:02:42;;;;;;;8.40;5.25;;;;;;;;;;5085161;28;20021;-68
2021/06/29 05:06:55;;;;;;;8.13;5.00;;;;;;;;;;5109810;27;20325;-64
2021/06/29 05:09:21;;;;;;;9.13;4.78;;;;;;;;;;5104769;28;20031;-65
2021/06/29 05:11:47;;;;;;;10.85;5.95;;;;;;;;;;5103684;28;20016;-64
2021/06/29 05:14:13;;;;;;;8.38;5.25;;;;;;;;;;5109909;28;20529;-64
2021/06/29 05:16:39;;;;;;;11.00;5.57;;;;;;;;;;5096380;28;20028;-63
2021/06/29 05:19:06;;;;;;;8.30;4.95;;;;;;;;;;5087420;28;20020;-64
2021/06/29 05:21:32;;;;;;;10.02;4.88;;;;;;;;;;5088918;28;20028;-64
2021/06/29 05:25:38;;;;;;;11.25;5.50;;;;;;;;;;5148004;27;20392;-65
2021/06/29 05:28:04;;;;;;;15.50;5.20;;;;;;;;;;5128207;28;20115;-65
2021/06/29 05:30:30;;;;;;;9.40;6.07;;;;;;;;;;5110907;28;20060;-64
2021/06/29 05:32:57;;;;;;;11.18;4.85;;;;;;;;;;5087844;28;20028;-65
2021/06/29 05:35:25;;;;;;;11.18;7.22;;;;;;;;;;5072964;28;20074;-64
2021/06/29 05:37:51;;;;;;;9.77;6.40;;;;;;;;;;5070584;28;20030;-64
2021/06/29 05:40:18;;;;;;;9.85;6.15;;;;;;;;;;5087074;28;20025;-64
2021/06/29 05:42:44;;;;;;;9.75;5.90;;;;;;;;;;5087035;28;20464;-65
2021/06/29 05:45:13;;;;;;;12.02;5.30;;;;;;;;;;5087329;28;20545;-64
2021/06/29 05:47:40;;;;;;;9.57;5.97;;;;;;;;;;5080990;28;20056;-65
2021/06/29 05:50:09;;;;;;;14.98;5.82;;;;;;;;;;5076483;28;20474;-64
2021/06/29 05:52:38;;;;;;;9.05;5.57;;;;;;;;;;5089275;28;20031;-64
2021/06/29 05:55:05;;;;;;;10.15;6.15;;;;;;;;;;5088535;28;20024;-65
2021/06/29 05:57:32;;;;;;;10.93;6.35;;;;;;;;;;5080102;28;20536;-66
2021/06/29 05:59:59;;;;;;;10.18;5.78;;;;;;;;;;5084563;28;20488;-65
2021/06/29 06:02:28;;;;;;;13.15;6.78;;;;;;;;;;5081536;28;20050;-65
2021/06/29 06:04:55;;;;;;;9.90;6.47;;;;;;;;;;5087853;28;20508;-64
2021/06/29 06:07:22;;;;;;;10.32;6.63;;;;;;;;;;5087980;28;20063;-66
2021/06/29 06:09:49;;;;;;;10.95;6.25;;;;;;;;;;5087455;28;20082;-65
2021/06/29 06:12:19;;;;;;;9.43;6.00;;;;;;;;;;5087655;28;20032;-65
2021/06/29 06:14:45;;;;;;;15.05;6.78;;;;;;;;;;5088236;28;20028;-64
2021/06/29 06:17:13;;;;;;;9.45;6.03;;;;;;;;;;5086477;28;20032;-65
2021/06/29 06:19:39;;;;;;;9.98;6.18;;;;;;;;;;5087557;28;20448;-68
2021/06/29 06:22:59;;;;;;;10.25;6.15;;;;;;;;;;5190596;27;20380;-69
2021/06/29 06:25:25;;;;;;;11.70;5.95;;;;;;;;;;5170424;27;20494;-69
2021/06/29 06:27:52;;;;;;;7.10;4.40;;;;;;;;;;5171240;27;20026;-70
2021/06/29 06:30:19;;;;;;;12.35;6.35;;;;;;;;;;5152269;27;20031;-70
2021/06/29 06:32:45;;;;;;;9.35;5.78;;;;;;;;;;5170991;27;20425;-70
2021/06/29 06:35:12;;;;;;;9.75;5.78;;;;;;;;;;5164236;27;20019;-69
2021/06/29 06:39:53;;;;;;;9.60;5.50;;;;;;;;;;5099336;27;20332;-71
2021/06/29 06:42:19;;;;;;;9.45;5.60;;;;;;;;;;5127014;28;20037;-70
2021/06/29 06:44:46;;;;;;;7.95;4.85;;;;;;;;;;5123097;28;20077;-70
2021/06/29 06:47:13;;;;;;;10.38;5.40;;;;;;;;;;5126041;28;20019;-69
2021/06/29 06:49:39;;;;;;;12.88;6.32;;;;;;;;;;5125606;28;20475;-69
2021/06/29 06:52:06;;;;;;;10.52;5.75;;;;;;;;;;5128811;28;20015;-70
2021/06/29 06:54:32;;;;;;;8.80;5.53;;;;;;;;;;5128682;28;20092;-69
2021/06/29 06:56:59;;;;;;;11.55;5.35;;;;;;;;;;5116834;28;20022;-69
2021/06/29 06:59:25;;;;;;;11.85;5.20;;;;;;;;;;5127022;28;20475;-69
2021/06/29 07:01:51;;;;;;;8.15;5.15;;;;;;;;;;5122590;27;20039;-68
2021/06/29 07:04:19;;;;;;;8.57;5.25;;;;;;;;;;5126199;27;20102;-68
2021/06/29 07:06:45;;;;;;;10.68;5.45;;;;;;;;;;5120768;28;20016;-69
2021/06/29 07:09:12;;;;;;;8.63;4.90;;;;;;;;;;5128199;28;20019;-69
2021/06/29 07:11:38;;;;;;;11.32;4.72;;;;;;;;;;5111782;28;20031;-69
2021/06/29 07:14:04;;;;;;;9.90;5.45;;;;;;;;;;5111261;28;20114;-66
2021/06/29 07:16:30;;;;;;;9.70;5.32;;;;;;;;;;5129552;28;20378;-66
2021/06/29 07:18:56;;;;;;;10.32;4.40;;;;;;;;;;5129534;28;20031;-67
2021/06/29 07:21:26;;;;;;;8.75;4.72;;;;;;;;;;5110377;28;20019;-66
2021/06/29 07:23:52;;;;;;;14.13;4.97;;;;;;;;;;5090532;28;20024;-69
2021/06/29 07:26:19;;;;;;;8.38;4.90;;;;;;;;;;5122103;28;20098;-67
2021/06/29 07:28:45;;;;;;;12.15;5.65;;;;;;;;;;5129319;28;20019;-68
2021/06/29 07:31:11;;;;;;;7.88;4.60;;;;;;;;;;5129659;28;20091;-68
2021/06/29 07:33:37;;;;;;;9.25;3.92;;;;;;;;;;5124835;28;20066;-70
2021/06/29 07:36:04;;;;;;;12.18;4.60;;;;;;;;;;5122321;28;20498;-69
2021/06/29 07:38:30;;;;;;;7.03;4.50;;;;;;;;;;5128015;28;20517;-69
2021/06/29 07:40:56;;;;;;;9.60;5.38;;;;;;;;;;5109425;28;20019;-70
2021/06/29 07:43:22;;;;;;;10.95;4.85;;;;;;;;;;5127083;28;20027;-70
2021/06/29 07:45:49;;;;;;;9.25;5.22;;;;;;;;;;5120542;28;20020;-70
2021/06/29 07:48:15;;;;;;;7.50;4.30;;;;;;;;;;5122687;28;20023;-69
2021/06/29 07:50:41;;;;;;;8.15;4.82;;;;;;;;;;5093190;28;20026;-70
2021/06/29 07:53:08;;;;;;;9.07;4.65;;;;;;;;;;5115748;28;20479;-70
2021/06/29 07:55:34;;;;;;;10.13;4.57;;;;;;;;;;5115368;28;20076;-70
2021/06/29 07:58:00;;;;;;;8.65;4.78;;;;;;;;;;5114949;28;20034;-70
2021/06/29 08:00:27;;;;;;;8.82;4.70;;;;;;;;;;5115410;28;20498;-70
2021/06/29 08:02:53;;;;;;;10.82;5.43;;;;;;;;;;5113906;28;20023;-70
2021/06/29 08:05:19;;;;;;;9.65;4.45;;;;;;;;;;5113139;28;20023;-70
2021/06/29 08:07:45;;;;;;;9.20;4.25;;;;;;;;;;5114403;28;20030;-69
2021/06/29 08:10:12;;;;;;;6.57;4.03;;;;;;;;;;5107830;28;20039;-69
2021/06/29 08:12:38;;;;;;;9.15;4.32;;;;;;;;;;5111790;28;20028;-69
2021/06/29 08:15:06;;;;;;;10.52;5.05;;;;;;;;;;5113035;28;20026;-69
2021/06/29 08:17:32;;;;;;;12.52;5.18;;;;;;;;;;5098883;28;20084;-69
2021/06/29 08:19:58;;;;;;;6.75;4.28;;;;;;;;;;5107327;28;20111;-69
2021/06/29 08:22:24;;;;;;;7.28;4.28;;;;;;;;;;5109021;28;20034;-69
2021/06/29 08:24:51;;;;;;;7.88;4.68;;;;;;;;;;5113545;28;20027;-68
2021/06/29 08:27:17;;;;;;;7.22;4.00;;;;;;;;;;5113212;28;20043;-68
2021/06/29 08:29:44;;;;;;;10.18;4.50;;;;;;;;;;5095231;28;20034;-69
2021/06/29 08:32:11;;;;;;;10.50;5.43;;;;;;;;;;5095667;28;20026;-72
2021/06/29 08:34:37;;;;;;;9.70;4.25;;;;;;;;;;5113862;28;20399;-70
2021/06/29 08:37:03;;;;;;;9.30;4.28;;;;;;;;;;5112982;28;20024;-71
2021/06/29 08:39:29;;;;;;;8.60;4.68;;;;;;;;;;5112789;28;20526;-70
2021/06/29 08:41:56;;;;;;;12.20;5.68;;;;;;;;;;5111758;28;20100;-71
2021/06/29 08:44:22;;;;;;;9.43;4.72;;;;;;;;;;5094100;28;20089;-69
2021/06/29 08:46:48;;;;;;;9.90;4.68;;;;;;;;;;5111930;28;20031;-70
2021/06/29 08:49:15;;;;;;;8.57;4.38;;;;;;;;;;5113114;28;20529;-69
2021/06/29 08:51:41;;;;;;;8.25;4.25;;;;;;;;;;5113887;28;20031;-70
2021/06/29 08:54:07;;;;;;;8.98;4.57;;;;;;;;;;5113142;28;20020;-68
2021/06/29 08:56:33;;;;;;;11.25;5.25;;;;;;;;;;5109564;28;20099;-68
2021/06/29 08:59:00;;;;;;;8.60;4.93;;;;;;;;;;5113068;28;20040;-71
2021/06/29 09:01:27;;;;;;;8.35;4.78;;;;;;;;;;5110480;28;20031;-68
2021/06/29 09:03:53;;;;;;;12.88;4.78;;;;;;;;;;5113086;28;20539;-69
2021/06/29 09:06:32;;;;;;;7.22;4.75;;;;;;;;;;5112915;28;20027;-70
2021/06/29 09:09:18;;;;;;;10.38;4.50;;;;;;;;;;5111769;28;20031;-70
2021/06/29 09:11:45;;;;;;;8.48;4.55;;;;;;;;;;5110516;28;20043;-69
2021/06/29 09:14:13;;;;;;;12.60;5.10;;;;;;;;;;5112068;28;20607;-70
2021/06/29 09:16:39;;;;;;;10.35;4.82;;;;;;;;;;5092089;28;20531;-68
2021/06/29 09:19:06;;;;;;;12.45;5.05;;;;;;;;;;5110997;28;20441;-68
2021/06/29 09:21:36;;;;;;;8.50;4.10;;;;;;;;;;5108983;28;20024;-69
2021/06/29 09:24:02;;;;;;;10.30;5.10;;;;;;;;;;5093770;28;20063;-69
2021/06/29 09:26:29;;;;;;;10.65;5.07;;;;;;;;;;5112775;28;20016;-68
2021/06/29 09:28:57;;;;;;;12.20;4.15;;;;;;;;;;5112533;28;20053;-69
2021/06/29 09:31:27;;;;;;;10.82;4.32;;;;;;;;;;5112771;28;20022;-69
2021/06/29 09:33:57;;;;;;;10.77;4.80;;;;;;;;;;5111729;28;20457;-69
2021/06/29 09:36:31;;;;;;;11.60;4.60;;;;;;;;;;5093458;28;20015;-70
2021/06/29 09:39:01;;;;;;;8.60;4.22;;;;;;;;;;5095425;28;20048;-69
2021/06/29 09:41:28;;;;;;;6.15;3.85;;;;;;;;;;5091885;28;20028;-69
2021/06/29 09:43:56;;;;;;;6.55;3.78;;;;;;;;;;5091983;28;20099;-68
2021/06/29 09:46:23;;;;;;;11.30;5.13;;;;;;;;;;5108105;28;20424;-69
2021/06/29 09:48:55;;;;;;;6.78;4.03;;;;;;;;;;5112872;28;20093;-69
2021/06/29 09:51:26;;;;;;;7.47;3.67;;;;;;;;;;5090747;28;20023;-69
2021/06/29 09:53:53;;;;;;;11.98;4.60;;;;;;;;;;5092428;28;20468;-69
2021/06/29 09:56:26;;;;;;;8.23;3.90;;;;;;;;;;5096499;28;20498;-69
2021/06/29 09:58:53;;;;;;;9.85;4.47;;;;;;;;;;5112511;28;20039;-69
2021/06/29 10:01:20;;;;;;;8.35;3.90;;;;;;;;;;5110354;28;20020;-69
2021/06/29 10:03:50;;;;;;;9.27;4.13;;;;;;;;;;5095880;28;20016;-68
2021/06/29 10:06:29;;;;;;;8.73;4.35;;;;;;;;;;5098216;28;20023;-70
2021/06/29 10:08:56;;;;;;;5.35;3.20;;;;;;;;;;5101034;28;20015;-69
2021/06/29 10:11:23;;;;;;;9.90;3.72;;;;;;;;;;5112317;28;20495;-69
2021/06/29 10:13:52;;;;;;;8.65;3.60;;;;;;;;;;5112100;28;20054;-70
2021/06/29 10:16:21;;;;;;;9.45;4.00;;;;;;;;;;5112080;28;20111;-70
2021/06/29 10:18:51;;;;;;;8.73;3.85;;;;;;;;;;5112213;28;20031;-70
2021/06/29 10:21:22;;;;;;;11.00;3.75;;;;;;;;;;5112305;28;20519;-71
2021/06/29 10:23:50;;;;;;;8.68;4.00;;;;;;;;;;5111707;28;20050;-69
2021/06/29 10:26:16;;;;;;;7.00;3.53;;;;;;;;;;5111652;28;20519;-69
2021/06/29 10:28:44;;;;;;;7.75;4.03;;;;;;;;;;5112425;28;20015;-71
2021/06/29 10:31:15;;;;;;;7.93;3.70;;;;;;;;;;5112232;28;20034;-72
2021/06/29 10:33:43;;;;;;;7.60;3.90;;;;;;;;;;5093957;28;20114;-72
2021/06/29 10:36:09;;;;;;;9.25;3.90;;;;;;;;;;5111546;28;20051;-72
2021/06/29 10:38:35;;;;;;;11.57;4.10;;;;;;;;;;5111599;28;20051;-71
2021/06/29 10:41:02;;;;;;;12.32;4.07;;;;;;;;;;5112474;28;20019;-69
2021/06/29 10:43:29;;;;;;;7.28;3.97;;;;;;;;;;5111651;28;20031;-69
2021/06/29 10:45:55;;;;;;;7.85;3.42;;;;;;;;;;5112014;28;20020;-70
2021/06/29 10:48:23;;;;;;;5.70;3.63;;;;;;;;;;5112329;28;20043;-71
2021/06/29 10:50:51;;;;;;;6.03;3.22;;;;;;;;;;5094067;28;20027;-73
2021/06/29 10:53:36;;;;;;;6.55;3.70;;;;;;;;;;5111385;28;20016;-71
2021/06/29 10:56:07;;;;;;;7.45;3.67;;;;;;;;;;5094205;28;20027;-72
2021/06/29 10:58:54;;;;;;;7.53;3.97;;;;;;;;;;5112114;28;20032;-72
2021/06/29 11:01:21;;;;;;;5.22;3.20;;;;;;;;;;5111800;28;20052;-70
2021/06/29 11:03:48;;;;;;;6.63;3.45;;;;;;;;;;5112116;28;20499;-72
2021/06/29 11:06:30;;;;;;;7.07;3.47;;;;;;;;;;5112515;28;20030;-75
2021/06/29 11:08:59;;;;;;;5.50;2.90;;;;;;;;;;5113038;28;20028;-73
2021/06/29 11:11:26;;;;;;;10.10;3.53;;;;;;;;;;5112152;28;20069;-71
2021/06/29 11:13:52;;;;;;;7.85;2.72;;;;;;;;;;5110850;28;20468;-71
2021/06/29 11:16:18;;;;;;;5.10;2.78;;;;;;;;;;5112743;28;20483;-74
2021/06/29 11:18:45;;;;;;;9.95;3.80;;;;;;;;;;5112459;28;20035;-72
2021/06/29 11:21:34;;;;;;;11.10;3.30;;;;;;;;;;5112175;28;20016;-70
2021/06/29 11:24:00;;;;;;;7.05;3.38;;;;;;;;;;5112497;28;20539;-70
2021/06/29 11:26:27;;;;;;;7.35;3.67;;;;;;;;;;5116184;28;20055;-71
2021/06/29 11:29:08;;;;;;;6.05;3.08;;;;;;;;;;5115914;28;20023;-70
2021/06/29 11:31:35;;;;;;;8.95;2.70;;;;;;;;;;5098181;28;20054;-71
2021/06/29 11:34:03;;;;;;;8.25;2.83;;;;;;;;;;5116374;28;20016;-71
2021/06/29 11:36:30;;;;;;;6.20;3.22;;;;;;;;;;5116283;28;20031;-70
2021/06/29 11:39:15;;;;;;;14.85;2.65;;;;;;;;;;5115934;28;20054;-70
2021/06/29 11:41:43;;;;;;;10.73;3.35;;;;;;;;;;5097481;28;20028;-68
2021/06/29 11:44:09;;;;;;;5.82;2.85;;;;;;;;;;5116119;28;20587;-70
2021/06/29 11:46:54;;;;;;;9.65;3.40;;;;;;;;;;5116328;28;20023;-69
2021/06/29 11:49:26;;;;;;;8.35;2.97;;;;;;;;;;5115636;28;20089;-68
2021/06/29 11:51:59;;;;;;;7.40;2.67;;;;;;;;;;5115849;28;20372;-69
2021/06/29 11:54:33;;;;;;;6.55;3.10;;;;;;;;;;5115977;28;20027;-71
2021/06/29 11:57:13;;;;;;;7.78;2.58;;;;;;;;;;5115536;28;20475;-71
2021/06/29 11:59:39;;;;;;;10.98;2.92;;;;;;;;;;5108477;28;20027;-69
2021/06/29 12:02:10;;;;;;;7.03;2.90;;;;;;;;;;5115156;28;20024;-70
2021/06/29 12:04:36;;;;;;;5.40;1.77;;;;;;;;;;5115370;28;20084;-69
2021/06/29 12:07:04;;;;;;;4.22;2.35;;;;;;;;;;5115627;28;20027;-69
2021/06/29 12:09:34;;;;;;;9.48;2.95;;;;;;;;;;5115192;28;20027;-69
2021/06/29 12:12:18;;;;;;;7.00;2.65;;;;;;;;;;5115345;28;20111;-70
2021/06/29 12:14:44;;;;;;;5.65;2.83;;;;;;;;;;5096879;28;20016;-69
2021/06/29 12:17:11;;;;;;;8.13;2.85;;;;;;;;;;5096744;28;20020;-69
2021/06/29 12:19:39;;;;;;;7.60;3.38;;;;;;;;;;5115285;28;20035;-68
2021/06/29 12:22:06;;;;;;;7.15;3.03;;;;;;;;;;5090253;28;20411;-69
2021/06/29 12:24:33;;;;;;;6.80;2.47;;;;;;;;;;5094414;28;20024;-69
2021/06/29 12:26:59;;;;;;;7.15;2.70;;;;;;;;;;5094431;28;20085;-70
2021/06/29 12:29:29;;;;;;;6.80;3.13;;;;;;;;;;5093044;28;20049;-70
2021/06/29 12:31:55;;;;;;;7.13;2.88;;;;;;;;;;5092533;28;20038;-70
2021/06/29 12:34:22;;;;;;;6.70;2.58;;;;;;;;;;5092453;28;20024;-70
2021/06/29 12:36:49;;;;;;;8.90;3.58;;;;;;;;;;5092342;28;20028;-70
2021/06/29 12:39:15;;;;;;;9.65;3.10;;;;;;;;;;5092232;28;20048;-70
2021/06/29 12:41:43;;;;;;;7.07;2.47;;;;;;;;;;5093631;28;20020;-70
2021/06/29 12:44:14;;;;;;;7.35;2.85;;;;;;;;;;5094538;28;20028;-70
2021/06/29 12:46:42;;;;;;;9.30;2.92;;;;;;;;;;5093183;28;20024;-70
2021/06/29 12:49:11;;;;;;;5.28;2.38;;;;;;;;;;5094221;28;20020;-71
2021/06/29 12:51:39;;;;;;;11.60;3.40;;;;;;;;;;5075777;28;20062;-71
2021/06/29 12:54:06;;;;;;;6.88;2.53;;;;;;;;;;5092886;28;20513;-71
2021/06/29 12:56:36;;;;;;;10.57;3.10;;;;;;;;;;5092210;28;20030;-71
2021/06/29 12:59:03;;;;;;;8.52;2.72;;;;;;;;;;5091937;28;20071;-71
2021/06/29 13:01:29;;;;;;;7.22;2.67;;;;;;;;;;5074304;28;20037;-71
2021/06/29 13:03:57;;;;;;;7.65;2.58;;;;;;;;;;5092213;28;20020;-71
2021/06/29 13:06:25;;;;;;;6.65;2.30;;;;;;;;;;5091599;28;20016;-70
2021/06/29 13:08:52;;;;;;;5.40;2.25;;;;;;;;;;5092803;28;20024;-70
2021/06/29 13:11:19;;;;;;;7.60;2.70;;;;;;;;;;5075983;28;20459;-70
2021/06/29 13:14:04;;;;;;;4.65;2.20;;;;;;;;;;5093689;28;20024;-70
2021/06/29 13:16:30;;;;;;;6.25;2.90;;;;;;;;;;5093982;28;20142;-70
2021/06/29 13:18:57;;;;;;;8.48;3.22;;;;;;;;;;5093904;28;20354;-70
2021/06/29 13:21:30;;;;;;;9.27;2.95;;;;;;;;;;5093484;28;20103;-70
2021/06/29 13:24:06;;;;;;;5.38;2.47;;;;;;;;;;5093913;28;20024;-69
2021/06/29 13:26:33;;;;;;;5.35;2.42;;;;;;;;;;5094116;28;20024;-69
2021/06/29 13:29:00;;;;;;;9.10;2.78;;;;;;;;;;5093761;28;20020;-70
2021/06/29 13:31:37;;;;;;;5.13;2.10;;;;;;;;;;5093701;28;20028;-70
2021/06/29 13:34:03;;;;;;;4.85;2.40;;;;;;;;;;5093394;28;20028;-70
2021/06/29 13:36:30;;;;;;;6.78;2.20;;;;;;;;;;5093650;28;20356;-71
2021/06/29 13:38:59;;;;;;;6.00;2.78;;;;;;;;;;5074983;28;20051;-69
2021/06/29 13:41:34;;;;;;;9.00;2.35;;;;;;;;;;5093261;28;20076;-68
2021/06/29 13:44:10;;;;;;;6.50;2.30;;;;;;;;;;5093513;28;20028;-69
2021/06/29 13:46:36;;;;;;;5.10;2.30;;;;;;;;;;5093631;28;20095;-69
2021/06/29 13:49:15;;;;;;;11.18;2.60;;;;;;;;;;5092591;28;20028;-69
2021/06/29 13:51:42;;;;;;;9.25;2.80;;;;;;;;;;5092658;28;20027;-71
2021/06/29 13:54:18;;;;;;;7.22;2.42;;;;;;;;;;5093236;28;20121;-70
2021/06/29 13:56:45;;;;;;;9.50;2.25;;;;;;;;;;5092905;28;20728;-69
2021/06/29 13:59:28;;;;;;;8.93;2.53;;;;;;;;;;5093057;28;20507;-69
2021/06/29 14:01:54;;;;;;;5.53;2.28;;;;;;;;;;5092805;28;20024;-70
2021/06/29 14:04:21;;;;;;;6.90;2.47;;;;;;;;;;5093142;28;20024;-70
2021/06/29 14:06:47;;;;;;;5.15;2.22;;;;;;;;;;5093286;28;20028;-72
2021/06/29 14:09:13;;;;;;;7.50;2.70;;;;;;;;;;5092782;28;20065;-70
2021/06/29 14:11:41;;;;;;;5.78;2.25;;;;;;;;;;5092996;28;20034;-69
2021/06/29 14:14:09;;;;;;;6.47;2.45;;;;;;;;;;5093019;28;20379;-70
2021/06/29 14:16:36;;;;;;;8.05;2.13;;;;;;;;;;5092470;28;20103;-70
2021/06/29 14:19:02;;;;;;;6.68;2.80;;;;;;;;;;5092828;28;20036;-70
2021/06/29 14:21:30;;;;;;;12.20;2.20;;;;;;;;;;5092920;28;20032;-69
2021/06/29 14:23:57;;;;;;;6.70;2.50;;;;;;;;;;5092563;28;20028;-70
2021/06/29 14:26:23;;;;;;;9.57;3.38;;;;;;;;;;5092770;28;20031;-70
2021/06/29 14:28:50;;;;;;;6.82;2.15;;;;;;;;;;5092846;28;20028;-70
2021/06/29 14:31:17;;;;;;;3.85;2.03;;;;;;;;;;5092473;28;20020;-69
2021/06/29 14:33:43;;;;;;;4.40;1.98;;;;;;;;;;5092903;28;20438;-69
2021/06/29 14:36:10;;;;;;;7.18;2.55;;;;;;;;;;5092697;28;20028;-69
2021/06/29 14:38:37;;;;;;;9.73;2.47;;;;;;;;;;5092021;28;20048;-69
2021/06/29 14:41:04;;;;;;;5.90;2.05;;;;;;;;;;5092643;28;20024;-70
2021/06/29 14:43:31;;;;;;;5.55;2.05;;;;;;;;;;5092595;28;20032;-69
2021/06/29 14:45:57;;;;;;;6.05;1.95;;;;;;;;;;5092577;28;20039;-69
2021/06/29 14:48:23;;;;;;;5.97;2.15;;;;;;;;;;5092722;28;20020;-70
2021/06/29 14:50:50;;;;;;;7.90;2.10;;;;;;;;;;5092438;28;20024;-68
2021/06/29 14:53:16;;;;;;;5.93;2.38;;;;;;;;;;5092118;28;20052;-69
2021/06/29 14:55:42;;;;;;;8.43;2.13;;;;;;;;;;5092460;28;20024;-69
2021/06/29 14:58:09;;;;;;;7.40;2.58;;;;;;;;;;5091943;28;20477;-70
2021/06/29 15:00:35;;;;;;;7.35;2.58;;;;;;;;;;5094892;28;20066;-70
2021/06/29 15:03:01;;;;;;;9.32;2.95;;;;;;;;;;5096522;28;20016;-70
2021/06/29 15:05:28;;;;;;;6.05;2.78;;;;;;;;;;5096302;28;20020;-69
2021/06/29 15:07:59;;;;;;;6.97;2.50;;;;;;;;;;5096632;28;20444;-70
2021/06/29 15:10:26;;;;;;;5.57;2.70;;;;;;;;;;5096408;28;20016;-71
2021/06/29 15:12:52;;;;;;;6.95;3.10;;;;;;;;;;5096029;28;20377;-68
2021/06/29 15:15:19;;;;;;;11.38;2.80;;;;;;;;;;5096327;28;20115;-69
2021/06/29 15:17:46;;;;;;;5.72;2.70;;;;;;;;;;5096123;28;20032;-69
2021/06/29 15:20:15;;;;;;;9.98;2.90;;;;;;;;;;5095785;28;20027;-69
2021/06/29 15:22:42;;;;;;;7.60;3.33;;;;;;;;;;5096091;28;20027;-69
2021/06/29 15:25:09;;;;;;;6.60;2.80;;;;;;;;;;5096257;28;20024;-70
2021/06/29 15:27:35;;;;;;;5.93;2.83;;;;;;;;;;5095871;28;20067;-70
2021/06/29 15:30:02;;;;;;;8.05;2.85;;;;;;;;;;5077716;28;20024;-72